Terminal Aerodrome Forecast
Issued by NWS Shreveport, LA

Home | Current Version | Previous Version | Text Only | Print | Product List | Glossary On
Versions: 1 2 3 4 5 6 7 8 9 10 11 12 13
000
FTUS44 KSHV 311100
TAFMLU
TAF
KMLU 311127Z 3112/0112 07005KT P6SM -RA SCT050 OVC100
      TEMPO 3116/3118 5SM -RA BR OVC070
     FM311800 08007KT P6SM -RA OVC070
      TEMPO 3118/3122 5SM -RA BR OVC050
     FM312200 09007KT 5SM -RA BR OVC050
     FM010000 09008KT P6SM VCTS OVC050CB
     FM010800 05007KT 5SM -SHRA BR OVC040
      TEMPO 0108/0112 3SM -TSRA BR OVC025CB=

USA.gov is the U.S. government's official web portal to all federal, state and local government web resources and services.